sensor_id;sensor_type;location;lat;lon;timestamp;pressure;altitude;pressure_sealevel;temperature;humidity
58739;BME280;44512;53.046;18.604;2023-02-11T00:04:23;102742.12;;;3.44;68.67
58739;BME280;44512;53.046;18.604;2023-02-11T00:14:52;102721.74;;;3.41;68.65
58739;BME280;44512;53.046;18.604;2023-02-11T00:25:20;102740.48;;;3.41;68.72
58739;BME280;44512;53.046;18.604;2023-02-11T00:35:49;102729.69;;;3.43;68.54
58739;BME280;44512;53.046;18.604;2023-02-11T00:46:17;102684.18;;;3.43;68.42
58739;BME280;44512;53.046;18.604;2023-02-11T00:56:46;102645.07;;;3.40;68.31
58739;BME280;44512;53.046;18.604;2023-02-11T01:07:14;102641.43;;;3.41;68.27
58739;BME280;44512;53.046;18.604;2023-02-11T01:17:43;102624.43;;;3.42;68.11
58739;BME280;44512;53.046;18.604;2023-02-11T01:28:18;102617.13;;;3.44;67.88
58739;BME280;44512;53.046;18.604;2023-02-11T01:38:40;102585.01;;;3.44;67.66
58739;BME280;44512;53.046;18.604;2023-02-11T01:49:11;102559.20;;;3.43;67.38
58739;BME280;44512;53.046;18.604;2023-02-11T02:10:13;102512.93;;;3.41;66.81
58739;BME280;44512;53.046;18.604;2023-02-11T02:20:45;102520.23;;;3.39;66.82
58739;BME280;44512;53.046;18.604;2023-02-11T02:31:10;102504.16;;;3.39;66.64
58739;BME280;44512;53.046;18.604;2023-02-11T02:41:33;102460.61;;;3.37;66.58
58739;BME280;44512;53.046;18.604;2023-02-11T02:52:30;102459.00;;;3.34;66.55
58739;BME280;44512;53.046;18.604;2023-02-11T03:02:35;102448.40;;;3.33;66.57
58739;BME280;44512;53.046;18.604;2023-02-11T03:12:56;102428.95;;;3.31;66.62
58739;BME280;44512;53.046;18.604;2023-02-11T03:23:29;102412.89;;;3.31;66.57
58739;BME280;44512;53.046;18.604;2023-02-11T03:34:05;102396.91;;;3.29;66.56
58739;BME280;44512;53.046;18.604;2023-02-11T03:44:24;102372.95;;;3.28;66.50
58739;BME280;44512;53.046;18.604;2023-02-11T03:54:54;102368.23;;;3.31;66.46
58739;BME280;44512;53.046;18.604;2023-02-11T04:05:18;102332.34;;;3.34;66.41
58739;BME280;44512;53.046;18.604;2023-02-11T04:15:46;102329.66;;;3.34;66.33
58739;BME280;44512;53.046;18.604;2023-02-11T04:26:15;102290.25;;;3.36;66.33
58739;BME280;44512;53.046;18.604;2023-02-11T04:36:43;102282.22;;;3.36;66.41
58739;BME280;44512;53.046;18.604;2023-02-11T04:47:12;102275.91;;;3.37;66.50
58739;BME280;44512;53.046;18.604;2023-02-11T04:57:40;102288.55;;;3.35;66.81
58739;BME280;44512;53.046;18.604;2023-02-11T05:08:09;102294.02;;;3.33;66.81
58739;BME280;44512;53.046;18.604;2023-02-11T05:18:38;102287.70;;;3.34;67.48
58739;BME280;44512;53.046;18.604;2023-02-11T05:29:05;102235.87;;;3.35;67.89
58739;BME280;44512;53.046;18.604;2023-02-11T05:39:34;102209.00;;;3.37;68.16
58739;BME280;44512;53.046;18.604;2023-02-11T05:50:03;102215.09;;;3.39;68.36
58739;BME280;44512;53.046;18.604;2023-02-11T06:00:31;102220.44;;;3.39;68.55
58739;BME280;44512;53.046;18.604;2023-02-11T06:10:59;102213.38;;;3.38;69.03
58739;BME280;44512;53.046;18.604;2023-02-11T06:21:28;102195.84;;;3.34;69.75
58739;BME280;44512;53.046;18.604;2023-02-11T06:31:56;102192.45;;;3.32;70.33
58739;BME280;44512;53.046;18.604;2023-02-11T06:42:25;102189.86;;;3.30;71.13
58739;BME280;44512;53.046;18.604;2023-02-11T06:52:53;102165.28;;;3.25;72.07
58739;BME280;44512;53.046;18.604;2023-02-11T07:03:22;102144.98;;;3.23;72.70
58739;BME280;44512;53.046;18.604;2023-02-11T07:13:52;102166.61;;;3.20;72.89
58739;BME280;44512;53.046;18.604;2023-02-11T07:24:18;102166.73;;;3.18;73.18
58739;BME280;44512;53.046;18.604;2023-02-11T07:34:47;102139.85;;;3.20;73.48
58739;BME280;44512;53.046;18.604;2023-02-11T07:45:16;102110.32;;;3.21;73.62
58739;BME280;44512;53.046;18.604;2023-02-11T07:55:44;102133.30;;;3.24;73.69
58739;BME280;44512;53.046;18.604;2023-02-11T08:06:14;102119.69;;;3.27;73.71
58739;BME280;44512;53.046;18.604;2023-02-11T08:16:41;102101.55;;;3.30;73.82
58739;BME280;44512;53.046;18.604;2023-02-11T08:27:09;102084.55;;;3.31;73.90
58739;BME280;44512;53.046;18.604;2023-02-11T08:37:38;102111.90;;;3.35;74.03
58739;BME280;44512;53.046;18.604;2023-02-11T08:48:07;102079.55;;;3.38;74.13
58739;BME280;44512;53.046;18.604;2023-02-11T08:58:35;102110.46;;;3.42;74.53
58739;BME280;44512;53.046;18.604;2023-02-11T09:09:04;102096.60;;;3.48;75.45
58739;BME280;44512;53.046;18.604;2023-02-11T09:19:32;102098.06;;;3.52;76.01
58739;BME280;44512;53.046;18.604;2023-02-11T09:34:57;102067.37;;;3.56;76.59
58739;BME280;44512;53.046;18.604;2023-02-11T09:45:28;102017.88;;;3.62;77.04
58739;BME280;44512;53.046;18.604;2023-02-11T09:55:57;101971.00;;;3.68;77.43
58739;BME280;44512;53.046;18.604;2023-02-11T10:27:23;102017.93;;;3.94;78.10
58739;BME280;44512;53.046;18.604;2023-02-11T10:37:49;102040.41;;;4.03;78.02
58739;BME280;44512;53.046;18.604;2023-02-11T11:19:42;102035.42;;;4.41;78.85
58739;BME280;44512;53.046;18.604;2023-02-11T11:30:15;102039.27;;;4.49;79.07
58739;BME280;44512;53.046;18.604;2023-02-11T11:40:39;102022.80;;;4.53;79.11
58739;BME280;44512;53.046;18.604;2023-02-11T11:51:11;102030.32;;;4.59;79.26
58739;BME280;44512;53.046;18.604;2023-02-11T12:01:48;102029.84;;;4.65;79.44
58739;BME280;44512;53.046;18.604;2023-02-11T12:33:14;102038.98;;;4.84;79.99
58739;BME280;44512;53.046;18.604;2023-02-11T12:43:37;102038.45;;;4.90;80.18
58739;BME280;44512;53.046;18.604;2023-02-11T13:14:59;102051.00;;;5.10;80.44
58739;BME280;44512;53.046;18.604;2023-02-11T13:25:41;102064.63;;;5.18;80.51
58739;BME280;44512;53.046;18.604;2023-02-11T13:46:20;102095.06;;;5.29;80.69
58739;BME280;44512;53.046;18.604;2023-02-11T14:07:27;102117.30;;;5.40;80.73
58739;BME280;44512;53.046;18.604;2023-02-11T14:17:46;102128.36;;;5.47;80.90
58739;BME280;44512;53.046;18.604;2023-02-11T14:28:23;102147.61;;;5.52;80.94
58739;BME280;44512;53.046;18.604;2023-02-11T14:49:24;102171.98;;;5.60;81.22
58739;BME280;44512;53.046;18.604;2023-02-11T15:10:17;102181.09;;;5.69;81.35
58739;BME280;44512;53.046;18.604;2023-02-11T15:20:40;102196.78;;;5.73;81.46
58739;BME280;44512;53.046;18.604;2023-02-11T15:31:13;102227.67;;;5.79;81.42
58739;BME280;44512;53.046;18.604;2023-02-11T15:41:36;102237.99;;;5.84;81.19
58739;BME280;44512;53.046;18.604;2023-02-11T15:52:02;102255.56;;;5.88;81.37
58739;BME280;44512;53.046;18.604;2023-02-11T16:02:32;102276.81;;;5.91;81.39
58739;BME280;44512;53.046;18.604;2023-02-11T16:23:37;102317.34;;;5.99;81.19
58739;BME280;44512;53.046;18.604;2023-02-11T16:33:55;102334.20;;;6.01;81.14
58739;BME280;44512;53.046;18.604;2023-02-11T16:44:24;102352.73;;;6.04;81.11
58739;BME280;44512;53.046;18.604;2023-02-11T16:54:52;102361.54;;;6.06;81.07
58739;BME280;44512;53.046;18.604;2023-02-11T17:05:21;102387.29;;;6.09;80.99
58739;BME280;44512;53.046;18.604;2023-02-11T17:15:49;102393.27;;;6.12;80.88
58739;BME280;44512;53.046;18.604;2023-02-11T17:26:17;102428.93;;;6.14;80.79
58739;BME280;44512;53.046;18.604;2023-02-11T17:36:46;102424.35;;;6.05;80.72
58739;BME280;44512;53.046;18.604;2023-02-11T17:47:14;102452.88;;;6.17;80.73
58739;BME280;44512;53.046;18.604;2023-02-11T17:57:43;102473.55;;;6.17;80.72
58739;BME280;44512;53.046;18.604;2023-02-11T18:08:11;102489.54;;;6.18;80.66
58739;BME280;44512;53.046;18.604;2023-02-11T18:18:42;102505.66;;;6.18;80.61
58739;BME280;44512;53.046;18.604;2023-02-11T18:29:08;102511.90;;;6.19;80.54
58739;BME280;44512;53.046;18.604;2023-02-11T18:39:36;102526.19;;;6.19;80.51
58739;BME280;44512;53.046;18.604;2023-02-11T18:50:07;102552.98;;;6.21;80.37
58739;BME280;44512;53.046;18.604;2023-02-11T19:00:33;102571.42;;;6.25;80.23
58739;BME280;44512;53.046;18.604;2023-02-11T19:11:03;102590.36;;;6.24;79.79
58739;BME280;44512;53.046;18.604;2023-02-11T19:21:30;102614.70;;;6.22;79.51
58739;BME280;44512;53.046;18.604;2023-02-11T19:31:58;102641.08;;;6.29;79.27
58739;BME280;44512;53.046;18.604;2023-02-11T19:42:27;102649.89;;;6.31;79.13
58739;BME280;44512;53.046;18.604;2023-02-11T19:52:55;102669.91;;;6.38;78.93
58739;BME280;44512;53.046;18.604;2023-02-11T20:03:24;102716.84;;;6.45;78.64
58739;BME280;44512;53.046;18.604;2023-02-11T20:13:52;102748.89;;;6.48;78.23
58739;BME280;44512;53.046;18.604;2023-02-11T20:24:23;102786.55;;;6.48;77.92
58739;BME280;44512;53.046;18.604;2023-02-11T20:34:49;102824.93;;;6.50;77.39
58739;BME280;44512;53.046;18.604;2023-02-11T20:45:17;102840.36;;;6.48;76.59
58739;BME280;44512;53.046;18.604;2023-02-11T20:55:46;102874.57;;;6.46;75.38
58739;BME280;44512;53.046;18.604;2023-02-11T21:06:14;102890.61;;;6.36;73.96
58739;BME280;44512;53.046;18.604;2023-02-11T21:16:42;102924.23;;;6.31;72.87
58739;BME280;44512;53.046;18.604;2023-02-11T21:27:11;102964.06;;;6.25;72.07
58739;BME280;44512;53.046;18.604;2023-02-11T21:37:39;102975.39;;;6.18;70.73
58739;BME280;44512;53.046;18.604;2023-02-11T21:48:08;102977.91;;;6.08;69.34
58739;BME280;44512;53.046;18.604;2023-02-11T21:58:36;102989.36;;;5.99;68.16
58739;BME280;44512;53.046;18.604;2023-02-11T22:09:06;102996.48;;;5.87;66.88
58739;BME280;44512;53.046;18.604;2023-02-11T22:19:33;103018.90;;;5.75;65.71
58739;BME280;44512;53.046;18.604;2023-02-11T22:30:01;103030.13;;;5.56;64.67
58739;BME280;44512;53.046;18.604;2023-02-11T22:40:30;103054.02;;;5.48;63.74
58739;BME280;44512;53.046;18.604;2023-02-11T22:51:04;103073.23;;;5.42;63.65
58739;BME280;44512;53.046;18.604;2023-02-11T23:01:27;103086.90;;;5.39;63.13
58739;BME280;44512;53.046;18.604;2023-02-11T23:11:54;103105.38;;;5.31;62.93
58739;BME280;44512;53.046;18.604;2023-02-11T23:22:23;103109.67;;;5.20;62.80
58739;BME280;44512;53.046;18.604;2023-02-11T23:32:51;103116.65;;;5.10;62.92
58739;BME280;44512;53.046;18.604;2023-02-11T23:43:19;103131.23;;;5.06;63.05
58739;BME280;44512;53.046;18.604;2023-02-11T23:53:49;103168.93;;;5.05;63.14
